sensor_id;sensor_type;location;lat;lon;timestamp;P1;durP1;ratioP1;P2;durP2;ratioP2
15110;SDS011;7656;51.954;7.998;2023-03-14T00:01:07;2.67;;;1.30;;
15110;SDS011;7656;51.954;7.998;2023-03-14T00:05:35;2.97;;;1.40;;
15110;SDS011;7656;51.954;7.998;2023-03-14T00:09:56;1.63;;;1.40;;
15110;SDS011;7656;51.954;7.998;2023-03-14T00:14:17;2.67;;;1.30;;
15110;SDS011;7656;51.954;7.998;2023-03-14T00:18:39;3.07;;;1.40;;
15110;SDS011;7656;51.954;7.998;2023-03-14T00:23:00;2.83;;;1.50;;
15110;SDS011;7656;51.954;7.998;2023-03-14T00:27:22;2.00;;;1.23;;
15110;SDS011;7656;51.954;7.998;2023-03-14T00:31:43;1.73;;;1.30;;
15110;SDS011;7656;51.954;7.998;2023-03-14T00:36:08;1.70;;;1.30;;
15110;SDS011;7656;51.954;7.998;2023-03-14T00:40:33;5.40;;;1.40;;
15110;SDS011;7656;51.954;7.998;2023-03-14T00:44:54;3.13;;;1.87;;
15110;SDS011;7656;51.954;7.998;2023-03-14T00:49:15;2.27;;;1.70;;
15110;SDS011;7656;51.954;7.998;2023-03-14T00:53:38;5.93;;;1.60;;
15110;SDS011;7656;51.954;7.998;2023-03-14T00:57:59;3.03;;;1.23;;
15110;SDS011;7656;51.954;7.998;2023-03-14T01:02:20;2.40;;;1.37;;
15110;SDS011;7656;51.954;7.998;2023-03-14T01:06:43;2.10;;;1.30;;
15110;SDS011;7656;51.954;7.998;2023-03-14T01:11:06;3.57;;;1.50;;
15110;SDS011;7656;51.954;7.998;2023-03-14T01:15:29;4.10;;;1.27;;
15110;SDS011;7656;51.954;7.998;2023-03-14T01:19:50;5.70;;;1.70;;
15110;SDS011;7656;51.954;7.998;2023-03-14T01:24:11;4.37;;;1.70;;
15110;SDS011;7656;51.954;7.998;2023-03-14T01:28:32;4.77;;;1.40;;
15110;SDS011;7656;51.954;7.998;2023-03-14T01:32:55;3.63;;;1.30;;
15110;SDS011;7656;51.954;7.998;2023-03-14T01:37:16;4.73;;;1.70;;
15110;SDS011;7656;51.954;7.998;2023-03-14T01:41:38;5.47;;;1.33;;
15110;SDS011;7656;51.954;7.998;2023-03-14T01:50:34;3.17;;;1.30;;
15110;SDS011;7656;51.954;7.998;2023-03-14T01:54:59;6.97;;;1.40;;
15110;SDS011;7656;51.954;7.998;2023-03-14T01:59:30;2.53;;;0.93;;
15110;SDS011;7656;51.954;7.998;2023-03-14T02:03:55;6.00;;;1.60;;
15110;SDS011;7656;51.954;7.998;2023-03-14T02:08:21;1.47;;;0.80;;
15110;SDS011;7656;51.954;7.998;2023-03-14T02:12:48;1.00;;;0.57;;
15110;SDS011;7656;51.954;7.998;2023-03-14T02:17:23;1.00;;;0.90;;
15110;SDS011;7656;51.954;7.998;2023-03-14T02:22:02;2.43;;;0.70;;
15110;SDS011;7656;51.954;7.998;2023-03-14T02:31:29;1.17;;;0.80;;
15110;SDS011;7656;51.954;7.998;2023-03-14T02:35:57;0.60;;;0.60;;
15110;SDS011;7656;51.954;7.998;2023-03-14T02:40:22;0.63;;;0.50;;
15110;SDS011;7656;51.954;7.998;2023-03-14T02:44:59;2.50;;;0.70;;
15110;SDS011;7656;51.954;7.998;2023-03-14T02:49:34;0.60;;;0.57;;
15110;SDS011;7656;51.954;7.998;2023-03-14T02:53:55;1.57;;;0.80;;
15110;SDS011;7656;51.954;7.998;2023-03-14T02:58:19;1.27;;;0.77;;
15110;SDS011;7656;51.954;7.998;2023-03-14T03:02:43;1.33;;;0.80;;
15110;SDS011;7656;51.954;7.998;2023-03-14T03:07:05;2.03;;;1.00;;
15110;SDS011;7656;51.954;7.998;2023-03-14T03:11:26;2.23;;;0.60;;
15110;SDS011;7656;51.954;7.998;2023-03-14T03:15:47;1.87;;;0.90;;
15110;SDS011;7656;51.954;7.998;2023-03-14T03:20:09;2.47;;;0.63;;
15110;SDS011;7656;51.954;7.998;2023-03-14T03:24:33;1.47;;;0.90;;
15110;SDS011;7656;51.954;7.998;2023-03-14T03:28:56;1.53;;;0.80;;
15110;SDS011;7656;51.954;7.998;2023-03-14T03:33:18;3.33;;;0.87;;
15110;SDS011;7656;51.954;7.998;2023-03-14T03:37:39;1.93;;;0.80;;
15110;SDS011;7656;51.954;7.998;2023-03-14T03:42:01;4.43;;;1.00;;
15110;SDS011;7656;51.954;7.998;2023-03-14T03:46:23;2.77;;;1.00;;
15110;SDS011;7656;51.954;7.998;2023-03-14T03:50:45;3.60;;;1.53;;
15110;SDS011;7656;51.954;7.998;2023-03-14T03:55:10;1.80;;;1.03;;
15110;SDS011;7656;51.954;7.998;2023-03-14T03:59:31;3.10;;;1.00;;
15110;SDS011;7656;51.954;7.998;2023-03-14T04:03:52;4.27;;;1.20;;
15110;SDS011;7656;51.954;7.998;2023-03-14T04:08:14;3.67;;;1.10;;
15110;SDS011;7656;51.954;7.998;2023-03-14T04:12:35;3.60;;;0.90;;
15110;SDS011;7656;51.954;7.998;2023-03-14T04:17:03;2.60;;;1.47;;
15110;SDS011;7656;51.954;7.998;2023-03-14T04:21:24;1.57;;;1.00;;
15110;SDS011;7656;51.954;7.998;2023-03-14T04:25:50;3.60;;;1.13;;
15110;SDS011;7656;51.954;7.998;2023-03-14T04:30:14;4.40;;;1.30;;
15110;SDS011;7656;51.954;7.998;2023-03-14T04:34:57;2.17;;;0.90;;
15110;SDS011;7656;51.954;7.998;2023-03-14T04:39:18;2.87;;;1.30;;
15110;SDS011;7656;51.954;7.998;2023-03-14T04:43:47;2.97;;;1.40;;
15110;SDS011;7656;51.954;7.998;2023-03-14T04:48:08;2.87;;;1.43;;
15110;SDS011;7656;51.954;7.998;2023-03-14T04:52:30;7.47;;;1.83;;
15110;SDS011;7656;51.954;7.998;2023-03-14T04:56:52;3.70;;;1.00;;
15110;SDS011;7656;51.954;7.998;2023-03-14T05:01:13;4.67;;;1.40;;
15110;SDS011;7656;51.954;7.998;2023-03-14T05:05:53;6.10;;;1.30;;
15110;SDS011;7656;51.954;7.998;2023-03-14T05:10:38;2.87;;;1.00;;
15110;SDS011;7656;51.954;7.998;2023-03-14T05:15:08;3.77;;;1.23;;
15110;SDS011;7656;51.954;7.998;2023-03-14T05:19:42;2.33;;;1.13;;
15110;SDS011;7656;51.954;7.998;2023-03-14T05:24:10;6.70;;;1.53;;
15110;SDS011;7656;51.954;7.998;2023-03-14T05:29:00;3.37;;;1.10;;
15110;SDS011;7656;51.954;7.998;2023-03-14T05:33:35;1.43;;;1.07;;
15110;SDS011;7656;51.954;7.998;2023-03-14T05:38:06;0.70;;;0.70;;
15110;SDS011;7656;51.954;7.998;2023-03-14T05:42:53;1.70;;;1.00;;
15110;SDS011;7656;51.954;7.998;2023-03-14T05:47:34;3.43;;;1.00;;
15110;SDS011;7656;51.954;7.998;2023-03-14T05:52:27;1.10;;;0.60;;
15110;SDS011;7656;51.954;7.998;2023-03-14T05:57:07;0.77;;;0.50;;
15110;SDS011;7656;51.954;7.998;2023-03-14T06:01:41;1.33;;;0.57;;
15110;SDS011;7656;51.954;7.998;2023-03-14T06:06:08;0.73;;;0.50;;
15110;SDS011;7656;51.954;7.998;2023-03-14T06:10:29;0.93;;;0.43;;
15110;SDS011;7656;51.954;7.998;2023-03-14T06:14:51;0.87;;;0.60;;
15110;SDS011;7656;51.954;7.998;2023-03-14T06:19:12;0.30;;;0.30;;
15110;SDS011;7656;51.954;7.998;2023-03-14T06:23:34;1.00;;;0.53;;
15110;SDS011;7656;51.954;7.998;2023-03-14T06:27:57;1.73;;;0.57;;
15110;SDS011;7656;51.954;7.998;2023-03-14T06:32:18;0.43;;;0.40;;
15110;SDS011;7656;51.954;7.998;2023-03-14T06:36:42;2.70;;;0.43;;
15110;SDS011;7656;51.954;7.998;2023-03-14T06:41:04;0.60;;;0.53;;
15110;SDS011;7656;51.954;7.998;2023-03-14T06:45:32;0.53;;;0.43;;
15110;SDS011;7656;51.954;7.998;2023-03-14T06:49:55;2.03;;;0.63;;
15110;SDS011;7656;51.954;7.998;2023-03-14T06:54:17;0.87;;;0.43;;
15110;SDS011;7656;51.954;7.998;2023-03-14T06:58:38;1.63;;;0.40;;
15110;SDS011;7656;51.954;7.998;2023-03-14T07:03:01;0.30;;;0.30;;
15110;SDS011;7656;51.954;7.998;2023-03-14T07:07:27;0.43;;;0.43;;
15110;SDS011;7656;51.954;7.998;2023-03-14T07:11:48;0.50;;;0.40;;
15110;SDS011;7656;51.954;7.998;2023-03-14T07:16:11;1.73;;;0.60;;
15110;SDS011;7656;51.954;7.998;2023-03-14T07:20:32;0.70;;;0.60;;
15110;SDS011;7656;51.954;7.998;2023-03-14T07:24:54;0.70;;;0.67;;
15110;SDS011;7656;51.954;7.998;2023-03-14T07:29:19;1.63;;;0.90;;
15110;SDS011;7656;51.954;7.998;2023-03-14T07:33:40;1.20;;;1.10;;
15110;SDS011;7656;51.954;7.998;2023-03-14T07:38:01;1.30;;;1.20;;
15110;SDS011;7656;51.954;7.998;2023-03-14T07:42:29;0.97;;;0.97;;
15110;SDS011;7656;51.954;7.998;2023-03-14T07:47:10;1.30;;;1.03;;
15110;SDS011;7656;51.954;7.998;2023-03-14T07:51:31;1.10;;;1.10;;
15110;SDS011;7656;51.954;7.998;2023-03-14T07:55:53;1.30;;;1.20;;
15110;SDS011;7656;51.954;7.998;2023-03-14T08:00:14;0.90;;;0.90;;
15110;SDS011;7656;51.954;7.998;2023-03-14T08:04:36;1.30;;;1.20;;
15110;SDS011;7656;51.954;7.998;2023-03-14T08:08:57;2.57;;;2.20;;
15110;SDS011;7656;51.954;7.998;2023-03-14T08:13:18;2.07;;;1.70;;
15110;SDS011;7656;51.954;7.998;2023-03-14T08:17:39;2.00;;;1.83;;
15110;SDS011;7656;51.954;7.998;2023-03-14T08:22:00;2.00;;;1.80;;
15110;SDS011;7656;51.954;7.998;2023-03-14T08:26:21;1.97;;;1.87;;
15110;SDS011;7656;51.954;7.998;2023-03-14T08:30:42;2.30;;;1.80;;
15110;SDS011;7656;51.954;7.998;2023-03-14T08:35:04;2.37;;;1.97;;
15110;SDS011;7656;51.954;7.998;2023-03-14T08:39:26;1.90;;;1.80;;
15110;SDS011;7656;51.954;7.998;2023-03-14T08:43:47;2.20;;;2.00;;
15110;SDS011;7656;51.954;7.998;2023-03-14T08:48:08;3.43;;;1.93;;
15110;SDS011;7656;51.954;7.998;2023-03-14T08:52:29;3.30;;;1.97;;
15110;SDS011;7656;51.954;7.998;2023-03-14T08:56:51;1.50;;;1.40;;
15110;SDS011;7656;51.954;7.998;2023-03-14T09:01:12;2.13;;;2.00;;
15110;SDS011;7656;51.954;7.998;2023-03-14T09:05:33;2.40;;;1.87;;
15110;SDS011;7656;51.954;7.998;2023-03-14T09:09:54;2.70;;;2.23;;
15110;SDS011;7656;51.954;7.998;2023-03-14T09:14:15;2.60;;;2.40;;
15110;SDS011;7656;51.954;7.998;2023-03-14T09:18:36;2.77;;;2.37;;
15110;SDS011;7656;51.954;7.998;2023-03-14T09:22:58;2.53;;;2.33;;
15110;SDS011;7656;51.954;7.998;2023-03-14T09:27:19;2.63;;;2.43;;
15110;SDS011;7656;51.954;7.998;2023-03-14T09:31:40;2.37;;;2.17;;
15110;SDS011;7656;51.954;7.998;2023-03-14T09:36:01;2.03;;;1.90;;
15110;SDS011;7656;51.954;7.998;2023-03-14T09:40:22;1.97;;;1.87;;
15110;SDS011;7656;51.954;7.998;2023-03-14T09:44:55;2.07;;;1.97;;
15110;SDS011;7656;51.954;7.998;2023-03-14T10:04:57;2.50;;;2.37;;
15110;SDS011;7656;51.954;7.998;2023-03-14T10:09:22;1.20;;;1.20;;
15110;SDS011;7656;51.954;7.998;2023-03-14T10:14:09;0.50;;;0.50;;
15110;SDS011;7656;51.954;7.998;2023-03-14T10:18:33;0.43;;;0.40;;
15110;SDS011;7656;51.954;7.998;2023-03-14T10:22:54;5.97;;;2.77;;
15110;SDS011;7656;51.954;7.998;2023-03-14T10:27:20;3.00;;;2.00;;
15110;SDS011;7656;51.954;7.998;2023-03-14T10:31:52;0.50;;;0.50;;
15110;SDS011;7656;51.954;7.998;2023-03-14T10:36:24;0.30;;;0.30;;
15110;SDS011;7656;51.954;7.998;2023-03-14T10:40:50;2.00;;;0.50;;
15110;SDS011;7656;51.954;7.998;2023-03-14T10:45:25;0.30;;;0.30;;
15110;SDS011;7656;51.954;7.998;2023-03-14T10:55:08;1.30;;;0.90;;
15110;SDS011;7656;51.954;7.998;2023-03-14T10:59:37;0.67;;;0.60;;
15110;SDS011;7656;51.954;7.998;2023-03-14T11:04:10;0.70;;;0.70;;
15110;SDS011;7656;51.954;7.998;2023-03-14T11:09:18;0.40;;;0.40;;
15110;SDS011;7656;51.954;7.998;2023-03-14T11:14:31;0.40;;;0.40;;
15110;SDS011;7656;51.954;7.998;2023-03-14T11:19:03;2.37;;;0.60;;
15110;SDS011;7656;51.954;7.998;2023-03-14T11:29:08;0.40;;;0.40;;
15110;SDS011;7656;51.954;7.998;2023-03-14T11:33:14;1.17;;;0.70;;
15110;SDS011;7656;51.954;7.998;2023-03-14T11:37:40;0.40;;;0.40;;
15110;SDS011;7656;51.954;7.998;2023-03-14T11:42:15;1.23;;;0.60;;
15110;SDS011;7656;51.954;7.998;2023-03-14T11:46:38;0.53;;;0.40;;
15110;SDS011;7656;51.954;7.998;2023-03-14T11:51:17;2.23;;;0.60;;
15110;SDS011;7656;51.954;7.998;2023-03-14T11:55:45;2.23;;;1.10;;
15110;SDS011;7656;51.954;7.998;2023-03-14T12:09:20;4.57;;;2.30;;
15110;SDS011;7656;51.954;7.998;2023-03-14T12:13:45;6.60;;;2.53;;
15110;SDS011;7656;51.954;7.998;2023-03-14T12:18:21;3.13;;;1.20;;
15110;SDS011;7656;51.954;7.998;2023-03-14T12:22:56;3.50;;;0.90;;
15110;SDS011;7656;51.954;7.998;2023-03-14T12:55:09;5.80;;;1.33;;
15110;SDS011;7656;51.954;7.998;2023-03-14T12:59:47;2.37;;;0.90;;
15110;SDS011;7656;51.954;7.998;2023-03-14T13:04:13;1.93;;;1.00;;
15110;SDS011;7656;51.954;7.998;2023-03-14T13:08:41;6.73;;;1.40;;
15110;SDS011;7656;51.954;7.998;2023-03-14T13:13:21;5.40;;;2.00;;
15110;SDS011;7656;51.954;7.998;2023-03-14T13:17:48;8.90;;;1.87;;
15110;SDS011;7656;51.954;7.998;2023-03-14T13:22:22;6.73;;;2.23;;
15110;SDS011;7656;51.954;7.998;2023-03-14T13:26:47;7.93;;;1.93;;
15110;SDS011;7656;51.954;7.998;2023-03-14T13:31:12;6.60;;;1.93;;
15110;SDS011;7656;51.954;7.998;2023-03-14T13:35:47;8.07;;;1.70;;
15110;SDS011;7656;51.954;7.998;2023-03-14T13:40:25;9.43;;;2.73;;
15110;SDS011;7656;51.954;7.998;2023-03-14T13:44:55;5.33;;;1.93;;
15110;SDS011;7656;51.954;7.998;2023-03-14T13:49:20;7.20;;;1.80;;
15110;SDS011;7656;51.954;7.998;2023-03-14T13:53:47;6.57;;;1.83;;
15110;SDS011;7656;51.954;7.998;2023-03-14T13:58:18;8.07;;;2.13;;
15110;SDS011;7656;51.954;7.998;2023-03-14T14:02:48;12.40;;;2.13;;
15110;SDS011;7656;51.954;7.998;2023-03-14T14:07:10;6.80;;;2.10;;
15110;SDS011;7656;51.954;7.998;2023-03-14T14:11:41;5.70;;;1.50;;
15110;SDS011;7656;51.954;7.998;2023-03-14T14:16:07;8.40;;;2.00;;
15110;SDS011;7656;51.954;7.998;2023-03-14T14:20:36;10.10;;;2.03;;
15110;SDS011;7656;51.954;7.998;2023-03-14T14:25:01;5.53;;;1.87;;
15110;SDS011;7656;51.954;7.998;2023-03-14T14:29:28;5.90;;;1.67;;
15110;SDS011;7656;51.954;7.998;2023-03-14T14:33:53;3.33;;;1.07;;
15110;SDS011;7656;51.954;7.998;2023-03-14T14:38:19;6.10;;;1.33;;
15110;SDS011;7656;51.954;7.998;2023-03-14T14:42:42;2.03;;;1.20;;
15110;SDS011;7656;51.954;7.998;2023-03-14T14:47:03;6.13;;;1.20;;
15110;SDS011;7656;51.954;7.998;2023-03-14T14:51:26;4.97;;;1.40;;
15110;SDS011;7656;51.954;7.998;2023-03-14T14:55:54;4.80;;;1.87;;
15110;SDS011;7656;51.954;7.998;2023-03-14T15:00:26;1.90;;;0.93;;
15110;SDS011;7656;51.954;7.998;2023-03-14T15:04:47;2.10;;;1.17;;
15110;SDS011;7656;51.954;7.998;2023-03-14T15:09:10;4.47;;;1.10;;
15110;SDS011;7656;51.954;7.998;2023-03-14T15:13:31;1.93;;;0.70;;
15110;SDS011;7656;51.954;7.998;2023-03-14T15:17:53;8.20;;;1.37;;
15110;SDS011;7656;51.954;7.998;2023-03-14T15:22:14;2.87;;;1.20;;
15110;SDS011;7656;51.954;7.998;2023-03-14T15:26:35;1.83;;;1.00;;
15110;SDS011;7656;51.954;7.998;2023-03-14T15:30:57;2.03;;;1.10;;
15110;SDS011;7656;51.954;7.998;2023-03-14T15:35:19;3.50;;;1.00;;
15110;SDS011;7656;51.954;7.998;2023-03-14T15:39:40;2.43;;;0.70;;
15110;SDS011;7656;51.954;7.998;2023-03-14T15:44:04;3.63;;;1.07;;
15110;SDS011;7656;51.954;7.998;2023-03-14T15:48:25;4.63;;;1.37;;
15110;SDS011;7656;51.954;7.998;2023-03-14T15:52:46;1.83;;;1.17;;
15110;SDS011;7656;51.954;7.998;2023-03-14T15:57:09;2.93;;;1.00;;
15110;SDS011;7656;51.954;7.998;2023-03-14T16:01:31;0.93;;;0.70;;
15110;SDS011;7656;51.954;7.998;2023-03-14T16:05:52;4.63;;;1.40;;
15110;SDS011;7656;51.954;7.998;2023-03-14T16:10:14;2.93;;;1.00;;
15110;SDS011;7656;51.954;7.998;2023-03-14T16:14:35;3.10;;;0.90;;
15110;SDS011;7656;51.954;7.998;2023-03-14T16:18:57;1.50;;;0.80;;
15110;SDS011;7656;51.954;7.998;2023-03-14T16:23:18;3.00;;;0.90;;
15110;SDS011;7656;51.954;7.998;2023-03-14T16:27:40;2.77;;;0.93;;
15110;SDS011;7656;51.954;7.998;2023-03-14T16:32:02;4.50;;;1.30;;
15110;SDS011;7656;51.954;7.998;2023-03-14T16:36:23;3.37;;;1.40;;
15110;SDS011;7656;51.954;7.998;2023-03-14T16:40:44;1.47;;;0.97;;
15110;SDS011;7656;51.954;7.998;2023-03-14T16:45:20;2.00;;;0.97;;
15110;SDS011;7656;51.954;7.998;2023-03-14T16:49:41;4.30;;;1.23;;
15110;SDS011;7656;51.954;7.998;2023-03-14T16:54:02;3.63;;;1.00;;
15110;SDS011;7656;51.954;7.998;2023-03-14T16:58:23;6.03;;;1.23;;
15110;SDS011;7656;51.954;7.998;2023-03-14T17:02:44;0.97;;;0.90;;
15110;SDS011;7656;51.954;7.998;2023-03-14T17:07:06;2.77;;;0.90;;
15110;SDS011;7656;51.954;7.998;2023-03-14T17:11:27;1.80;;;0.90;;
15110;SDS011;7656;51.954;7.998;2023-03-14T17:15:51;4.13;;;1.20;;
15110;SDS011;7656;51.954;7.998;2023-03-14T17:20:16;4.43;;;1.07;;
15110;SDS011;7656;51.954;7.998;2023-03-14T17:24:37;1.93;;;1.20;;
15110;SDS011;7656;51.954;7.998;2023-03-14T17:28:59;1.53;;;0.90;;
15110;SDS011;7656;51.954;7.998;2023-03-14T17:33:20;6.83;;;3.17;;
15110;SDS011;7656;51.954;7.998;2023-03-14T17:37:41;6.10;;;1.77;;
15110;SDS011;7656;51.954;7.998;2023-03-14T17:42:02;4.40;;;1.57;;
15110;SDS011;7656;51.954;7.998;2023-03-14T17:46:24;3.57;;;1.67;;
15110;SDS011;7656;51.954;7.998;2023-03-14T17:50:46;6.67;;;2.77;;
15110;SDS011;7656;51.954;7.998;2023-03-14T17:55:07;5.03;;;1.37;;
15110;SDS011;7656;51.954;7.998;2023-03-14T17:59:29;5.30;;;2.60;;
15110;SDS011;7656;51.954;7.998;2023-03-14T18:03:50;11.67;;;6.20;;
15110;SDS011;7656;51.954;7.998;2023-03-14T18:08:15;11.97;;;6.33;;
15110;SDS011;7656;51.954;7.998;2023-03-14T18:12:36;7.37;;;2.00;;
15110;SDS011;7656;51.954;7.998;2023-03-14T18:16:58;6.13;;;1.70;;
15110;SDS011;7656;51.954;7.998;2023-03-14T18:21:19;4.33;;;1.47;;
15110;SDS011;7656;51.954;7.998;2023-03-14T18:25:41;1.80;;;1.10;;
15110;SDS011;7656;51.954;7.998;2023-03-14T18:30:02;2.50;;;1.30;;
15110;SDS011;7656;51.954;7.998;2023-03-14T18:34:24;2.27;;;1.20;;
15110;SDS011;7656;51.954;7.998;2023-03-14T18:38:46;5.47;;;2.00;;
15110;SDS011;7656;51.954;7.998;2023-03-14T18:43:09;4.47;;;1.37;;
15110;SDS011;7656;51.954;7.998;2023-03-14T18:47:31;3.90;;;1.33;;
15110;SDS011;7656;51.954;7.998;2023-03-14T18:51:55;9.73;;;1.80;;
15110;SDS011;7656;51.954;7.998;2023-03-14T18:56:16;3.90;;;1.13;;
15110;SDS011;7656;51.954;7.998;2023-03-14T19:00:38;5.30;;;1.37;;
15110;SDS011;7656;51.954;7.998;2023-03-14T19:05:00;7.47;;;1.87;;
15110;SDS011;7656;51.954;7.998;2023-03-14T19:09:21;5.00;;;1.60;;
15110;SDS011;7656;51.954;7.998;2023-03-14T19:13:42;2.77;;;1.70;;
15110;SDS011;7656;51.954;7.998;2023-03-14T19:18:03;5.20;;;2.20;;
15110;SDS011;7656;51.954;7.998;2023-03-14T19:22:28;3.90;;;1.53;;
15110;SDS011;7656;51.954;7.998;2023-03-14T19:26:51;3.37;;;1.40;;
15110;SDS011;7656;51.954;7.998;2023-03-14T19:31:12;3.67;;;2.00;;
15110;SDS011;7656;51.954;7.998;2023-03-14T19:35:33;8.73;;;1.70;;
15110;SDS011;7656;51.954;7.998;2023-03-14T19:39:54;3.70;;;1.20;;
15110;SDS011;7656;51.954;7.998;2023-03-14T19:44:15;3.30;;;1.63;;
15110;SDS011;7656;51.954;7.998;2023-03-14T19:48:36;4.50;;;2.10;;
15110;SDS011;7656;51.954;7.998;2023-03-14T19:52:57;2.70;;;1.20;;
15110;SDS011;7656;51.954;7.998;2023-03-14T19:57:18;7.37;;;1.40;;
15110;SDS011;7656;51.954;7.998;2023-03-14T20:01:40;4.40;;;1.37;;
15110;SDS011;7656;51.954;7.998;2023-03-14T20:06:08;2.93;;;1.30;;
15110;SDS011;7656;51.954;7.998;2023-03-14T20:10:31;3.23;;;1.23;;
15110;SDS011;7656;51.954;7.998;2023-03-14T20:14:55;2.77;;;1.33;;
15110;SDS011;7656;51.954;7.998;2023-03-14T20:19:16;4.53;;;1.50;;
15110;SDS011;7656;51.954;7.998;2023-03-14T20:23:37;6.43;;;1.47;;
15110;SDS011;7656;51.954;7.998;2023-03-14T20:27:58;7.27;;;1.33;;
15110;SDS011;7656;51.954;7.998;2023-03-14T20:32:21;6.37;;;1.27;;
15110;SDS011;7656;51.954;7.998;2023-03-14T20:36:42;2.13;;;1.00;;
15110;SDS011;7656;51.954;7.998;2023-03-14T20:41:04;4.73;;;1.13;;
15110;SDS011;7656;51.954;7.998;2023-03-14T20:45:27;2.73;;;1.00;;
15110;SDS011;7656;51.954;7.998;2023-03-14T20:49:48;3.90;;;1.43;;
15110;SDS011;7656;51.954;7.998;2023-03-14T20:54:09;5.00;;;1.33;;
15110;SDS011;7656;51.954;7.998;2023-03-14T20:58:33;6.60;;;1.50;;
15110;SDS011;7656;51.954;7.998;2023-03-14T21:02:54;5.40;;;1.30;;
15110;SDS011;7656;51.954;7.998;2023-03-14T21:07:15;2.97;;;1.17;;
15110;SDS011;7656;51.954;7.998;2023-03-14T21:11:36;8.27;;;1.53;;
15110;SDS011;7656;51.954;7.998;2023-03-14T21:16:00;3.90;;;1.50;;
15110;SDS011;7656;51.954;7.998;2023-03-14T21:20:22;2.27;;;1.43;;
15110;SDS011;7656;51.954;7.998;2023-03-14T21:24:46;2.23;;;1.20;;
15110;SDS011;7656;51.954;7.998;2023-03-14T21:29:07;3.33;;;1.50;;
15110;SDS011;7656;51.954;7.998;2023-03-14T21:33:28;3.27;;;0.90;;
15110;SDS011;7656;51.954;7.998;2023-03-14T21:37:49;2.30;;;0.90;;
15110;SDS011;7656;51.954;7.998;2023-03-14T21:42:10;3.40;;;1.53;;
15110;SDS011;7656;51.954;7.998;2023-03-14T21:46:32;8.03;;;1.77;;
15110;SDS011;7656;51.954;7.998;2023-03-14T21:50:56;3.13;;;1.53;;
15110;SDS011;7656;51.954;7.998;2023-03-14T21:55:17;2.00;;;1.00;;
15110;SDS011;7656;51.954;7.998;2023-03-14T21:59:38;4.80;;;1.40;;
15110;SDS011;7656;51.954;7.998;2023-03-14T22:04:01;4.50;;;1.80;;
15110;SDS011;7656;51.954;7.998;2023-03-14T22:08:22;6.70;;;1.70;;
15110;SDS011;7656;51.954;7.998;2023-03-14T22:12:43;2.60;;;1.20;;
15110;SDS011;7656;51.954;7.998;2023-03-14T22:17:04;5.10;;;2.27;;
15110;SDS011;7656;51.954;7.998;2023-03-14T22:21:25;9.87;;;2.40;;
15110;SDS011;7656;51.954;7.998;2023-03-14T22:25:46;3.37;;;1.50;;
15110;SDS011;7656;51.954;7.998;2023-03-14T22:30:09;4.67;;;1.60;;
15110;SDS011;7656;51.954;7.998;2023-03-14T22:34:30;3.20;;;1.33;;
15110;SDS011;7656;51.954;7.998;2023-03-14T22:38:52;5.90;;;1.77;;
15110;SDS011;7656;51.954;7.998;2023-03-14T22:43:13;4.90;;;1.40;;
15110;SDS011;7656;51.954;7.998;2023-03-14T22:47:34;3.23;;;1.67;;
15110;SDS011;7656;51.954;7.998;2023-03-14T22:51:55;5.27;;;1.60;;
15110;SDS011;7656;51.954;7.998;2023-03-14T22:56:16;3.40;;;1.47;;
15110;SDS011;7656;51.954;7.998;2023-03-14T23:00:37;4.40;;;1.50;;
15110;SDS011;7656;51.954;7.998;2023-03-14T23:04:59;1.80;;;1.00;;
15110;SDS011;7656;51.954;7.998;2023-03-14T23:09:20;2.70;;;1.33;;
15110;SDS011;7656;51.954;7.998;2023-03-14T23:13:41;4.43;;;2.00;;
15110;SDS011;7656;51.954;7.998;2023-03-14T23:18:02;4.00;;;1.13;;
15110;SDS011;7656;51.954;7.998;2023-03-14T23:22:23;2.87;;;1.37;;
15110;SDS011;7656;51.954;7.998;2023-03-14T23:26:44;3.10;;;1.20;;
15110;SDS011;7656;51.954;7.998;2023-03-14T23:31:06;3.17;;;1.70;;
15110;SDS011;7656;51.954;7.998;2023-03-14T23:35:28;6.13;;;1.67;;
15110;SDS011;7656;51.954;7.998;2023-03-14T23:39:50;2.30;;;1.73;;
15110;SDS011;7656;51.954;7.998;2023-03-14T23:44:11;3.00;;;1.37;;
15110;SDS011;7656;51.954;7.998;2023-03-14T23:48:32;1.90;;;1.50;;
15110;SDS011;7656;51.954;7.998;2023-03-14T23:52:53;2.63;;;1.33;;
15110;SDS011;7656;51.954;7.998;2023-03-14T23:57:14;4.90;;;1.37;;
